Terminal Aerodrome Forecast
Issued by NWS Jackson, MS

Home | Current Version | Previous Version | Text Only | Print | Product List | Glossary On
Versions: 1 2 3 4 5 6 7 8 9 10 11 12 13 14
000
FTUS44 KJAN 230549
TAFMEI
TAF
KMEI 230549Z 2306/2406 36005KT 4SM RA BR SCT015 BKN035
     FM231200 VRB03KT 6SM BR SCT008 BKN015
     FM231600 34006KT P6SM BKN040=

USA.gov is the U.S. government's official web portal to all federal, state and local government web resources and services.